sensor_id;sensor_type;location;lat;lon;timestamp;P1;durP1;ratioP1;P2;durP2;ratioP2
8104;SDS011;4095;48.942;9.104;2022-10-15T00:02:10;2.17;;;1.90;;
8104;SDS011;4095;48.942;9.104;2022-10-15T00:04:35;2.73;;;1.80;;
8104;SDS011;4095;48.942;9.104;2022-10-15T00:07:01;2.07;;;1.83;;
8104;SDS011;4095;48.942;9.104;2022-10-15T00:09:27;2.43;;;1.43;;
8104;SDS011;4095;48.942;9.104;2022-10-15T00:11:52;2.77;;;2.00;;
8104;SDS011;4095;48.942;9.104;2022-10-15T00:14:18;1.93;;;1.70;;
8104;SDS011;4095;48.942;9.104;2022-10-15T00:16:44;2.37;;;1.60;;
8104;SDS011;4095;48.942;9.104;2022-10-15T00:19:09;2.43;;;1.50;;
8104;SDS011;4095;48.942;9.104;2022-10-15T00:21:35;1.93;;;1.70;;
8104;SDS011;4095;48.942;9.104;2022-10-15T00:24:01;4.23;;;1.50;;
8104;SDS011;4095;48.942;9.104;2022-10-15T00:26:29;3.60;;;1.90;;
8104;SDS011;4095;48.942;9.104;2022-10-15T00:28:58;1.97;;;1.70;;
8104;SDS011;4095;48.942;9.104;2022-10-15T00:31:26;4.10;;;1.70;;
8104;SDS011;4095;48.942;9.104;2022-10-15T00:33:54;1.80;;;1.53;;
8104;SDS011;4095;48.942;9.104;2022-10-15T00:36:22;2.93;;;1.80;;
8104;SDS011;4095;48.942;9.104;2022-10-15T00:38:49;2.03;;;1.80;;
8104;SDS011;4095;48.942;9.104;2022-10-15T00:41:30;2.00;;;1.80;;
8104;SDS011;4095;48.942;9.104;2022-10-15T00:43:58;3.07;;;1.50;;
8104;SDS011;4095;48.942;9.104;2022-10-15T00:46:28;2.10;;;1.50;;
8104;SDS011;4095;48.942;9.104;2022-10-15T00:51:43;2.57;;;1.13;;
8104;SDS011;4095;48.942;9.104;2022-10-15T00:54:12;1.60;;;1.40;;
8104;SDS011;4095;48.942;9.104;2022-10-15T00:56:39;3.20;;;1.57;;
8104;SDS011;4095;48.942;9.104;2022-10-15T00:59:07;1.67;;;1.20;;
8104;SDS011;4095;48.942;9.104;2022-10-15T01:01:35;1.17;;;0.93;;
8104;SDS011;4095;48.942;9.104;2022-10-15T01:04:01;1.40;;;1.20;;
8104;SDS011;4095;48.942;9.104;2022-10-15T01:06:27;3.47;;;1.20;;
8104;SDS011;4095;48.942;9.104;2022-10-15T01:08:54;1.33;;;1.10;;
8104;SDS011;4095;48.942;9.104;2022-10-15T01:17:06;2.00;;;1.13;;
8104;SDS011;4095;48.942;9.104;2022-10-15T01:25:45;1.20;;;1.10;;
8104;SDS011;4095;48.942;9.104;2022-10-15T01:31:40;2.40;;;1.10;;
8104;SDS011;4095;48.942;9.104;2022-10-15T01:37:13;1.53;;;0.93;;
8104;SDS011;4095;48.942;9.104;2022-10-15T01:40:20;1.10;;;1.00;;
8104;SDS011;4095;48.942;9.104;2022-10-15T01:42:57;0.93;;;0.80;;
8104;SDS011;4095;48.942;9.104;2022-10-15T01:45:26;0.80;;;0.80;;
8104;SDS011;4095;48.942;9.104;2022-10-15T01:48:01;1.20;;;1.10;;
8104;SDS011;4095;48.942;9.104;2022-10-15T01:50:30;1.60;;;1.00;;
8104;SDS011;4095;48.942;9.104;2022-10-15T01:52:58;1.37;;;0.90;;
8104;SDS011;4095;48.942;9.104;2022-10-15T01:55:26;2.03;;;0.93;;
8104;SDS011;4095;48.942;9.104;2022-10-15T01:57:53;0.97;;;0.90;;
8104;SDS011;4095;48.942;9.104;2022-10-15T02:00:21;1.80;;;0.97;;
8104;SDS011;4095;48.942;9.104;2022-10-15T02:02:47;0.87;;;0.87;;
8104;SDS011;4095;48.942;9.104;2022-10-15T02:05:15;2.93;;;1.10;;
8104;SDS011;4095;48.942;9.104;2022-10-15T02:13:13;1.67;;;0.90;;
8104;SDS011;4095;48.942;9.104;2022-10-15T02:15:50;1.37;;;1.17;;
8104;SDS011;4095;48.942;9.104;2022-10-15T02:18:32;1.17;;;1.07;;
8104;SDS011;4095;48.942;9.104;2022-10-15T02:21:06;1.93;;;1.13;;
8104;SDS011;4095;48.942;9.104;2022-10-15T02:26:16;0.80;;;0.80;;
8104;SDS011;4095;48.942;9.104;2022-10-15T02:28:46;1.00;;;0.80;;
8104;SDS011;4095;48.942;9.104;2022-10-15T02:31:16;1.93;;;1.00;;
8104;SDS011;4095;48.942;9.104;2022-10-15T02:33:44;2.07;;;1.10;;
8104;SDS011;4095;48.942;9.104;2022-10-15T02:36:12;1.83;;;1.03;;
8104;SDS011;4095;48.942;9.104;2022-10-15T02:38:39;4.07;;;1.00;;
8104;SDS011;4095;48.942;9.104;2022-10-15T02:41:07;1.90;;;1.13;;
8104;SDS011;4095;48.942;9.104;2022-10-15T02:43:34;1.77;;;1.00;;
8104;SDS011;4095;48.942;9.104;2022-10-15T02:46:01;1.20;;;1.10;;
8104;SDS011;4095;48.942;9.104;2022-10-15T02:48:27;1.00;;;0.77;;
8104;SDS011;4095;48.942;9.104;2022-10-15T02:50:52;1.97;;;0.93;;
8104;SDS011;4095;48.942;9.104;2022-10-15T02:53:18;2.50;;;0.80;;
8104;SDS011;4095;48.942;9.104;2022-10-15T02:55:43;2.20;;;1.10;;
8104;SDS011;4095;48.942;9.104;2022-10-15T02:58:10;0.93;;;0.90;;
8104;SDS011;4095;48.942;9.104;2022-10-15T03:00:36;1.83;;;1.20;;
8104;SDS011;4095;48.942;9.104;2022-10-15T03:03:02;2.73;;;1.30;;
8104;SDS011;4095;48.942;9.104;2022-10-15T03:05:27;2.70;;;1.00;;
8104;SDS011;4095;48.942;9.104;2022-10-15T03:07:53;1.43;;;0.93;;
8104;SDS011;4095;48.942;9.104;2022-10-15T03:10:19;0.83;;;0.70;;
8104;SDS011;4095;48.942;9.104;2022-10-15T03:12:45;1.90;;;0.80;;
8104;SDS011;4095;48.942;9.104;2022-10-15T03:15:10;2.57;;;1.10;;
8104;SDS011;4095;48.942;9.104;2022-10-15T03:17:36;3.03;;;1.03;;
8104;SDS011;4095;48.942;9.104;2022-10-15T03:20:01;1.50;;;0.90;;
8104;SDS011;4095;48.942;9.104;2022-10-15T03:22:28;1.00;;;0.90;;
8104;SDS011;4095;48.942;9.104;2022-10-15T03:24:53;2.43;;;1.00;;
8104;SDS011;4095;48.942;9.104;2022-10-15T03:27:19;1.00;;;0.90;;
8104;SDS011;4095;48.942;9.104;2022-10-15T03:29:44;1.17;;;0.90;;
8104;SDS011;4095;48.942;9.104;2022-10-15T03:32:10;2.73;;;1.07;;
8104;SDS011;4095;48.942;9.104;2022-10-15T03:34:36;0.97;;;0.60;;
8104;SDS011;4095;48.942;9.104;2022-10-15T03:37:01;2.17;;;0.67;;
8104;SDS011;4095;48.942;9.104;2022-10-15T03:39:27;2.97;;;0.90;;
8104;SDS011;4095;48.942;9.104;2022-10-15T03:41:52;1.67;;;1.00;;
8104;SDS011;4095;48.942;9.104;2022-10-15T03:44:18;0.87;;;0.63;;
8104;SDS011;4095;48.942;9.104;2022-10-15T03:46:44;2.03;;;0.87;;
8104;SDS011;4095;48.942;9.104;2022-10-15T03:49:09;1.20;;;0.67;;
8104;SDS011;4095;48.942;9.104;2022-10-15T03:51:36;3.40;;;0.77;;
8104;SDS011;4095;48.942;9.104;2022-10-15T03:54:01;1.63;;;0.63;;
8104;SDS011;4095;48.942;9.104;2022-10-15T03:56:27;2.17;;;0.70;;
8104;SDS011;4095;48.942;9.104;2022-10-15T03:58:53;1.87;;;1.00;;
8104;SDS011;4095;48.942;9.104;2022-10-15T04:01:19;1.00;;;0.70;;
8104;SDS011;4095;48.942;9.104;2022-10-15T04:03:44;2.00;;;0.60;;
8104;SDS011;4095;48.942;9.104;2022-10-15T04:06:10;1.07;;;0.77;;
8104;SDS011;4095;48.942;9.104;2022-10-15T04:08:36;0.87;;;0.67;;
8104;SDS011;4095;48.942;9.104;2022-10-15T04:11:02;2.50;;;0.70;;
8104;SDS011;4095;48.942;9.104;2022-10-15T04:13:27;1.43;;;0.90;;
8104;SDS011;4095;48.942;9.104;2022-10-15T04:15:53;0.67;;;0.53;;
8104;SDS011;4095;48.942;9.104;2022-10-15T04:18:19;0.77;;;0.77;;
8104;SDS011;4095;48.942;9.104;2022-10-15T04:20:46;0.70;;;0.60;;
8104;SDS011;4095;48.942;9.104;2022-10-15T04:23:12;0.87;;;0.70;;
8104;SDS011;4095;48.942;9.104;2022-10-15T04:25:38;1.33;;;1.23;;
8104;SDS011;4095;48.942;9.104;2022-10-15T04:28:04;1.00;;;1.00;;
8104;SDS011;4095;48.942;9.104;2022-10-15T04:30:30;0.70;;;0.70;;
8104;SDS011;4095;48.942;9.104;2022-10-15T04:32:55;1.10;;;0.50;;
8104;SDS011;4095;48.942;9.104;2022-10-15T04:35:21;1.53;;;1.00;;
8104;SDS011;4095;48.942;9.104;2022-10-15T04:37:47;1.20;;;0.80;;
8104;SDS011;4095;48.942;9.104;2022-10-15T04:40:12;0.80;;;0.80;;
8104;SDS011;4095;48.942;9.104;2022-10-15T04:42:39;0.73;;;0.73;;
8104;SDS011;4095;48.942;9.104;2022-10-15T04:45:05;1.60;;;0.70;;
8104;SDS011;4095;48.942;9.104;2022-10-15T04:47:31;0.77;;;0.77;;
8104;SDS011;4095;48.942;9.104;2022-10-15T04:49:57;1.73;;;0.83;;
8104;SDS011;4095;48.942;9.104;2022-10-15T04:52:23;2.03;;;0.70;;
8104;SDS011;4095;48.942;9.104;2022-10-15T04:54:48;2.30;;;0.80;;
8104;SDS011;4095;48.942;9.104;2022-10-15T04:57:14;2.27;;;0.80;;
8104;SDS011;4095;48.942;9.104;2022-10-15T04:59:40;0.70;;;0.70;;
8104;SDS011;4095;48.942;9.104;2022-10-15T05:02:08;2.07;;;1.00;;
8104;SDS011;4095;48.942;9.104;2022-10-15T05:04:34;1.30;;;0.70;;
8104;SDS011;4095;48.942;9.104;2022-10-15T05:06:59;3.30;;;0.70;;
8104;SDS011;4095;48.942;9.104;2022-10-15T05:09:25;0.80;;;0.80;;
8104;SDS011;4095;48.942;9.104;2022-10-15T05:11:51;1.10;;;0.67;;
8104;SDS011;4095;48.942;9.104;2022-10-15T05:14:16;1.80;;;0.70;;
8104;SDS011;4095;48.942;9.104;2022-10-15T05:16:42;1.23;;;0.70;;
8104;SDS011;4095;48.942;9.104;2022-10-15T05:19:09;1.27;;;0.80;;
8104;SDS011;4095;48.942;9.104;2022-10-15T05:21:35;0.70;;;0.70;;
8104;SDS011;4095;48.942;9.104;2022-10-15T05:24:01;0.80;;;0.70;;
8104;SDS011;4095;48.942;9.104;2022-10-15T05:26:29;4.90;;;1.03;;
8104;SDS011;4095;48.942;9.104;2022-10-15T05:28:56;1.90;;;1.80;;
8104;SDS011;4095;48.942;9.104;2022-10-15T05:31:23;1.77;;;1.10;;
8104;SDS011;4095;48.942;9.104;2022-10-15T05:33:51;1.00;;;0.90;;
8104;SDS011;4095;48.942;9.104;2022-10-15T05:36:25;2.33;;;1.27;;
8104;SDS011;4095;48.942;9.104;2022-10-15T05:38:56;0.93;;;0.87;;
8104;SDS011;4095;48.942;9.104;2022-10-15T05:41:24;1.20;;;0.90;;
8104;SDS011;4095;48.942;9.104;2022-10-15T05:43:51;1.53;;;1.13;;
8104;SDS011;4095;48.942;9.104;2022-10-15T05:46:18;1.23;;;1.13;;
8104;SDS011;4095;48.942;9.104;2022-10-15T05:48:48;2.30;;;1.00;;
8104;SDS011;4095;48.942;9.104;2022-10-15T05:51:17;1.00;;;0.90;;
8104;SDS011;4095;48.942;9.104;2022-10-15T05:53:43;2.17;;;1.00;;
8104;SDS011;4095;48.942;9.104;2022-10-15T05:56:10;2.87;;;1.20;;
8104;SDS011;4095;48.942;9.104;2022-10-15T05:58:37;1.70;;;1.00;;
8104;SDS011;4095;48.942;9.104;2022-10-15T06:01:03;0.87;;;0.87;;
8104;SDS011;4095;48.942;9.104;2022-10-15T06:03:31;1.07;;;1.00;;
8104;SDS011;4095;48.942;9.104;2022-10-15T06:05:57;1.20;;;1.10;;
8104;SDS011;4095;48.942;9.104;2022-10-15T06:08:22;1.00;;;0.97;;
8104;SDS011;4095;48.942;9.104;2022-10-15T06:10:48;3.27;;;1.03;;
8104;SDS011;4095;48.942;9.104;2022-10-15T06:13:14;2.30;;;1.10;;
8104;SDS011;4095;48.942;9.104;2022-10-15T06:15:41;1.77;;;1.10;;
8104;SDS011;4095;48.942;9.104;2022-10-15T06:18:08;1.37;;;1.20;;
8104;SDS011;4095;48.942;9.104;2022-10-15T06:20:34;2.23;;;1.30;;
8104;SDS011;4095;48.942;9.104;2022-10-15T06:23:01;1.40;;;1.30;;
8104;SDS011;4095;48.942;9.104;2022-10-15T06:25:28;1.53;;;1.43;;
8104;SDS011;4095;48.942;9.104;2022-10-15T06:27:54;1.87;;;1.47;;
8104;SDS011;4095;48.942;9.104;2022-10-15T06:30:20;2.53;;;1.40;;
8104;SDS011;4095;48.942;9.104;2022-10-15T06:32:49;1.20;;;1.10;;
8104;SDS011;4095;48.942;9.104;2022-10-15T06:35:16;3.13;;;1.80;;
8104;SDS011;4095;48.942;9.104;2022-10-15T06:37:42;3.50;;;1.80;;
8104;SDS011;4095;48.942;9.104;2022-10-15T06:40:08;3.87;;;1.60;;
8104;SDS011;4095;48.942;9.104;2022-10-15T06:42:35;2.20;;;1.50;;
8104;SDS011;4095;48.942;9.104;2022-10-15T06:45:00;1.37;;;1.27;;
8104;SDS011;4095;48.942;9.104;2022-10-15T06:47:26;1.67;;;1.40;;
8104;SDS011;4095;48.942;9.104;2022-10-15T06:49:52;2.23;;;1.40;;
8104;SDS011;4095;48.942;9.104;2022-10-15T06:52:17;1.47;;;1.30;;
8104;SDS011;4095;48.942;9.104;2022-10-15T06:54:43;2.50;;;1.47;;
8104;SDS011;4095;48.942;9.104;2022-10-15T06:57:08;2.23;;;1.20;;
8104;SDS011;4095;48.942;9.104;2022-10-15T06:59:34;1.37;;;1.17;;
8104;SDS011;4095;48.942;9.104;2022-10-15T07:01:59;1.60;;;1.40;;
8104;SDS011;4095;48.942;9.104;2022-10-15T07:04:25;1.57;;;1.20;;
8104;SDS011;4095;48.942;9.104;2022-10-15T07:06:51;1.40;;;1.30;;
8104;SDS011;4095;48.942;9.104;2022-10-15T07:09:16;2.90;;;1.40;;
8104;SDS011;4095;48.942;9.104;2022-10-15T07:11:43;1.90;;;1.37;;
8104;SDS011;4095;48.942;9.104;2022-10-15T07:14:08;2.30;;;1.70;;
8104;SDS011;4095;48.942;9.104;2022-10-15T07:16:34;4.23;;;2.10;;
8104;SDS011;4095;48.942;9.104;2022-10-15T07:19:01;2.63;;;1.90;;
8104;SDS011;4095;48.942;9.104;2022-10-15T07:21:27;2.30;;;1.63;;
8104;SDS011;4095;48.942;9.104;2022-10-15T07:23:52;2.27;;;2.00;;
8104;SDS011;4095;48.942;9.104;2022-10-15T07:26:18;2.03;;;1.83;;
8104;SDS011;4095;48.942;9.104;2022-10-15T07:28:43;2.17;;;1.80;;
8104;SDS011;4095;48.942;9.104;2022-10-15T07:31:09;1.63;;;1.53;;
8104;SDS011;4095;48.942;9.104;2022-10-15T07:33:35;1.37;;;1.20;;
8104;SDS011;4095;48.942;9.104;2022-10-15T07:36:04;1.33;;;0.90;;
8104;SDS011;4095;48.942;9.104;2022-10-15T07:38:32;2.37;;;1.10;;
8104;SDS011;4095;48.942;9.104;2022-10-15T07:40:59;1.00;;;0.87;;
8104;SDS011;4095;48.942;9.104;2022-10-15T07:43:25;0.73;;;0.73;;
8104;SDS011;4095;48.942;9.104;2022-10-15T07:45:51;1.30;;;1.20;;
8104;SDS011;4095;48.942;9.104;2022-10-15T07:48:17;1.47;;;1.07;;
8104;SDS011;4095;48.942;9.104;2022-10-15T07:50:43;0.90;;;0.90;;
8104;SDS011;4095;48.942;9.104;2022-10-15T07:53:09;1.63;;;0.90;;
8104;SDS011;4095;48.942;9.104;2022-10-15T07:55:34;1.73;;;0.90;;
8104;SDS011;4095;48.942;9.104;2022-10-15T07:58:00;1.20;;;1.10;;
8104;SDS011;4095;48.942;9.104;2022-10-15T08:00:26;2.30;;;0.90;;
8104;SDS011;4095;48.942;9.104;2022-10-15T08:02:51;2.50;;;1.07;;
8104;SDS011;4095;48.942;9.104;2022-10-15T08:05:17;2.07;;;0.90;;
8104;SDS011;4095;48.942;9.104;2022-10-15T08:07:42;1.43;;;1.10;;
8104;SDS011;4095;48.942;9.104;2022-10-15T08:10:08;1.50;;;1.00;;
8104;SDS011;4095;48.942;9.104;2022-10-15T08:12:35;2.53;;;1.30;;
8104;SDS011;4095;48.942;9.104;2022-10-15T08:15:01;1.60;;;1.20;;
8104;SDS011;4095;48.942;9.104;2022-10-15T08:17:27;3.03;;;1.30;;
8104;SDS011;4095;48.942;9.104;2022-10-15T08:19:52;1.20;;;1.10;;
8104;SDS011;4095;48.942;9.104;2022-10-15T08:22:19;1.23;;;1.10;;
8104;SDS011;4095;48.942;9.104;2022-10-15T08:24:45;1.67;;;1.57;;
8104;SDS011;4095;48.942;9.104;2022-10-15T08:27:10;4.23;;;1.40;;
8104;SDS011;4095;48.942;9.104;2022-10-15T08:29:36;2.97;;;1.50;;
8104;SDS011;4095;48.942;9.104;2022-10-15T08:32:01;1.70;;;1.20;;
8104;SDS011;4095;48.942;9.104;2022-10-15T08:34:27;1.10;;;0.93;;
8104;SDS011;4095;48.942;9.104;2022-10-15T08:36:53;1.20;;;1.10;;
8104;SDS011;4095;48.942;9.104;2022-10-15T08:39:18;1.90;;;1.37;;
8104;SDS011;4095;48.942;9.104;2022-10-15T08:41:45;2.67;;;1.37;;
8104;SDS011;4095;48.942;9.104;2022-10-15T08:47:40;2.90;;;1.40;;
8104;SDS011;4095;48.942;9.104;2022-10-15T08:49:52;2.13;;;1.40;;
8104;SDS011;4095;48.942;9.104;2022-10-15T08:54:53;2.83;;;1.63;;
8104;SDS011;4095;48.942;9.104;2022-10-15T08:57:37;2.43;;;1.60;;
8104;SDS011;4095;48.942;9.104;2022-10-15T09:00:34;1.80;;;1.50;;
8104;SDS011;4095;48.942;9.104;2022-10-15T09:06:15;2.07;;;1.40;;
8104;SDS011;4095;48.942;9.104;2022-10-15T09:14:38;2.50;;;1.50;;
8104;SDS011;4095;48.942;9.104;2022-10-15T09:17:26;1.57;;;1.47;;
8104;SDS011;4095;48.942;9.104;2022-10-15T09:19:56;3.73;;;1.70;;
8104;SDS011;4095;48.942;9.104;2022-10-15T09:22:26;2.57;;;1.70;;
8104;SDS011;4095;48.942;9.104;2022-10-15T09:24:54;2.57;;;1.80;;
8104;SDS011;4095;48.942;9.104;2022-10-15T09:30:02;2.83;;;1.70;;
8104;SDS011;4095;48.942;9.104;2022-10-15T09:32:39;2.30;;;1.63;;
8104;SDS011;4095;48.942;9.104;2022-10-15T09:35:32;1.93;;;1.40;;
8104;SDS011;4095;48.942;9.104;2022-10-15T09:44:07;3.40;;;0.97;;
8104;SDS011;4095;48.942;9.104;2022-10-15T09:46:44;3.40;;;1.40;;
8104;SDS011;4095;48.942;9.104;2022-10-15T09:49:14;3.20;;;1.00;;
8104;SDS011;4095;48.942;9.104;2022-10-15T09:54:24;1.30;;;1.00;;
8104;SDS011;4095;48.942;9.104;2022-10-15T09:56:59;1.20;;;1.10;;
8104;SDS011;4095;48.942;9.104;2022-10-15T09:59:25;1.10;;;1.00;;
8104;SDS011;4095;48.942;9.104;2022-10-15T10:01:58;2.47;;;1.33;;
8104;SDS011;4095;48.942;9.104;2022-10-15T10:04:25;5.17;;;1.20;;
8104;SDS011;4095;48.942;9.104;2022-10-15T10:06:53;2.43;;;1.13;;
8104;SDS011;4095;48.942;9.104;2022-10-15T10:09:30;1.90;;;1.03;;
8104;SDS011;4095;48.942;9.104;2022-10-15T10:12:17;1.97;;;1.00;;
8104;SDS011;4095;48.942;9.104;2022-10-15T10:17:33;1.07;;;0.97;;
8104;SDS011;4095;48.942;9.104;2022-10-15T10:27:54;1.13;;;0.80;;
8104;SDS011;4095;48.942;9.104;2022-10-15T10:30:22;1.77;;;0.57;;
8104;SDS011;4095;48.942;9.104;2022-10-15T10:32:48;0.70;;;0.60;;
8104;SDS011;4095;48.942;9.104;2022-10-15T10:35:24;1.20;;;0.60;;
8104;SDS011;4095;48.942;9.104;2022-10-15T10:37:53;4.28;;;0.60;;
8104;SDS011;4095;48.942;9.104;2022-10-15T10:40:29;0.40;;;0.40;;
8104;SDS011;4095;48.942;9.104;2022-10-15T10:43:09;1.60;;;0.70;;
8104;SDS011;4095;48.942;9.104;2022-10-15T10:51:07;1.40;;;0.68;;
8104;SDS011;4095;48.942;9.104;2022-10-15T10:53:43;0.53;;;0.53;;
8104;SDS011;4095;48.942;9.104;2022-10-15T10:56:11;1.77;;;0.65;;
8104;SDS011;4095;48.942;9.104;2022-10-15T10:58:39;5.00;;;0.80;;
8104;SDS011;4095;48.942;9.104;2022-10-15T11:01:08;1.70;;;0.60;;
8104;SDS011;4095;48.942;9.104;2022-10-15T11:03:37;1.27;;;0.53;;
8104;SDS011;4095;48.942;9.104;2022-10-15T11:17:28;1.43;;;0.47;;
8104;SDS011;4095;48.942;9.104;2022-10-15T11:20:20;1.47;;;0.77;;
8104;SDS011;4095;48.942;9.104;2022-10-15T11:25:54;1.00;;;0.90;;
8104;SDS011;4095;48.942;9.104;2022-10-15T11:31:53;1.23;;;0.73;;
8104;SDS011;4095;48.942;9.104;2022-10-15T11:43:02;0.50;;;0.50;;
8104;SDS011;4095;48.942;9.104;2022-10-15T11:51:22;0.67;;;0.53;;
8104;SDS011;4095;48.942;9.104;2022-10-15T11:54:01;3.43;;;0.90;;
8104;SDS011;4095;48.942;9.104;2022-10-15T11:56:48;1.03;;;0.60;;
8104;SDS011;4095;48.942;9.104;2022-10-15T12:02:14;1.53;;;0.73;;
8104;SDS011;4095;48.942;9.104;2022-10-15T12:04:48;2.00;;;0.87;;
8104;SDS011;4095;48.942;9.104;2022-10-15T12:07:21;2.77;;;0.60;;
8104;SDS011;4095;48.942;9.104;2022-10-15T12:09:51;1.50;;;0.60;;
8104;SDS011;4095;48.942;9.104;2022-10-15T12:17:48;2.63;;;0.70;;
8104;SDS011;4095;48.942;9.104;2022-10-15T12:20:22;0.97;;;0.80;;
8104;SDS011;4095;48.942;9.104;2022-10-15T12:28:01;2.40;;;1.10;;
8104;SDS011;4095;48.942;9.104;2022-10-15T12:30:33;3.53;;;0.80;;
8104;SDS011;4095;48.942;9.104;2022-10-15T12:33:01;2.47;;;0.90;;
8104;SDS011;4095;48.942;9.104;2022-10-15T12:35:33;2.00;;;0.80;;
8104;SDS011;4095;48.942;9.104;2022-10-15T12:38:11;1.93;;;0.70;;
8104;SDS011;4095;48.942;9.104;2022-10-15T12:40:44;1.17;;;0.70;;
8104;SDS011;4095;48.942;9.104;2022-10-15T12:43:16;1.57;;;0.80;;
8104;SDS011;4095;48.942;9.104;2022-10-15T12:45:55;1.67;;;0.80;;
8104;SDS011;4095;48.942;9.104;2022-10-15T12:53:45;2.40;;;0.90;;
8104;SDS011;4095;48.942;9.104;2022-10-15T12:58:41;1.53;;;0.70;;
8104;SDS011;4095;48.942;9.104;2022-10-15T13:08:47;0.87;;;0.70;;
8104;SDS011;4095;48.942;9.104;2022-10-15T13:17:04;1.37;;;0.80;;
8104;SDS011;4095;48.942;9.104;2022-10-15T13:19:45;1.43;;;0.80;;
8104;SDS011;4095;48.942;9.104;2022-10-15T13:22:26;1.80;;;0.70;;
8104;SDS011;4095;48.942;9.104;2022-10-15T13:24:53;3.40;;;1.00;;
8104;SDS011;4095;48.942;9.104;2022-10-15T13:30:00;0.80;;;0.70;;
8104;SDS011;4095;48.942;9.104;2022-10-15T13:32:30;1.93;;;0.70;;
8104;SDS011;4095;48.942;9.104;2022-10-15T13:34:57;1.43;;;0.77;;
8104;SDS011;4095;48.942;9.104;2022-10-15T13:37:34;1.70;;;0.70;;
8104;SDS011;4095;48.942;9.104;2022-10-15T13:40:02;1.13;;;0.80;;
8104;SDS011;4095;48.942;9.104;2022-10-15T13:42:29;1.80;;;0.63;;
8104;SDS011;4095;48.942;9.104;2022-10-15T13:44:56;0.73;;;0.60;;
8104;SDS011;4095;48.942;9.104;2022-10-15T13:47:24;1.70;;;0.50;;
8104;SDS011;4095;48.942;9.104;2022-10-15T13:49:49;0.70;;;0.70;;
8104;SDS011;4095;48.942;9.104;2022-10-15T13:52:15;3.03;;;0.90;;
8104;SDS011;4095;48.942;9.104;2022-10-15T13:54:42;0.93;;;0.70;;
8104;SDS011;4095;48.942;9.104;2022-10-15T13:57:11;1.50;;;0.60;;
8104;SDS011;4095;48.942;9.104;2022-10-15T13:59:40;1.13;;;0.70;;
8104;SDS011;4095;48.942;9.104;2022-10-15T14:02:09;0.90;;;0.60;;
8104;SDS011;4095;48.942;9.104;2022-10-15T14:04:36;0.77;;;0.57;;
8104;SDS011;4095;48.942;9.104;2022-10-15T14:07:23;1.03;;;0.67;;
8104;SDS011;4095;48.942;9.104;2022-10-15T14:09:51;1.73;;;1.00;;
8104;SDS011;4095;48.942;9.104;2022-10-15T14:12:17;2.23;;;0.80;;
8104;SDS011;4095;48.942;9.104;2022-10-15T14:14:43;1.57;;;0.67;;
8104;SDS011;4095;48.942;9.104;2022-10-15T14:19:52;2.20;;;0.70;;
8104;SDS011;4095;48.942;9.104;2022-10-15T14:22:24;1.00;;;0.77;;
8104;SDS011;4095;48.942;9.104;2022-10-15T14:24:52;1.30;;;0.80;;
8104;SDS011;4095;48.942;9.104;2022-10-15T14:27:21;1.60;;;0.90;;
8104;SDS011;4095;48.942;9.104;2022-10-15T14:29:49;2.40;;;0.80;;
8104;SDS011;4095;48.942;9.104;2022-10-15T14:32:24;1.27;;;0.80;;
8104;SDS011;4095;48.942;9.104;2022-10-15T14:35:33;3.53;;;1.30;;
8104;SDS011;4095;48.942;9.104;2022-10-15T14:37:59;3.73;;;1.53;;
8104;SDS011;4095;48.942;9.104;2022-10-15T14:40:29;2.37;;;1.60;;
8104;SDS011;4095;48.942;9.104;2022-10-15T14:43:14;4.93;;;1.30;;
8104;SDS011;4095;48.942;9.104;2022-10-15T14:48:17;1.87;;;1.00;;
8104;SDS011;4095;48.942;9.104;2022-10-15T14:50:47;1.00;;;0.90;;
8104;SDS011;4095;48.942;9.104;2022-10-15T14:53:18;2.07;;;1.10;;
8104;SDS011;4095;48.942;9.104;2022-10-15T14:55:49;1.17;;;1.07;;
8104;SDS011;4095;48.942;9.104;2022-10-15T14:58:19;1.10;;;0.80;;
8104;SDS011;4095;48.942;9.104;2022-10-15T15:00:47;1.73;;;1.20;;
8104;SDS011;4095;48.942;9.104;2022-10-15T15:03:19;1.73;;;0.93;;
8104;SDS011;4095;48.942;9.104;2022-10-15T15:05:50;1.27;;;1.17;;
8104;SDS011;4095;48.942;9.104;2022-10-15T15:08:17;2.93;;;1.00;;
8104;SDS011;4095;48.942;9.104;2022-10-15T15:10:44;1.73;;;1.00;;
8104;SDS011;4095;48.942;9.104;2022-10-15T15:13:19;2.27;;;1.13;;
8104;SDS011;4095;48.942;9.104;2022-10-15T15:15:46;3.63;;;1.33;;
8104;SDS011;4095;48.942;9.104;2022-10-15T15:18:12;1.97;;;1.20;;
8104;SDS011;4095;48.942;9.104;2022-10-15T15:20:39;2.20;;;1.17;;
8104;SDS011;4095;48.942;9.104;2022-10-15T15:23:05;1.23;;;0.90;;
8104;SDS011;4095;48.942;9.104;2022-10-15T15:25:38;2.33;;;1.20;;
8104;SDS011;4095;48.942;9.104;2022-10-15T15:28:05;2.73;;;1.30;;
8104;SDS011;4095;48.942;9.104;2022-10-15T15:30:38;2.70;;;1.23;;
8104;SDS011;4095;48.942;9.104;2022-10-15T15:33:07;3.87;;;1.40;;
8104;SDS011;4095;48.942;9.104;2022-10-15T15:35:42;2.30;;;1.33;;
8104;SDS011;4095;48.942;9.104;2022-10-15T15:38:16;1.23;;;1.13;;
8104;SDS011;4095;48.942;9.104;2022-10-15T15:40:42;1.57;;;1.23;;
8104;SDS011;4095;48.942;9.104;2022-10-15T15:43:10;2.97;;;1.20;;
8104;SDS011;4095;48.942;9.104;2022-10-15T15:45:38;2.87;;;1.13;;
8104;SDS011;4095;48.942;9.104;2022-10-15T15:48:04;2.00;;;1.10;;
8104;SDS011;4095;48.942;9.104;2022-10-15T15:50:30;2.23;;;1.20;;
8104;SDS011;4095;48.942;9.104;2022-10-15T15:52:55;1.70;;;1.20;;
8104;SDS011;4095;48.942;9.104;2022-10-15T15:55:21;4.60;;;1.20;;
8104;SDS011;4095;48.942;9.104;2022-10-15T15:57:47;1.93;;;1.23;;
8104;SDS011;4095;48.942;9.104;2022-10-15T16:00:13;1.87;;;1.10;;
8104;SDS011;4095;48.942;9.104;2022-10-15T16:02:39;2.23;;;1.13;;
8104;SDS011;4095;48.942;9.104;2022-10-15T16:05:05;1.20;;;1.10;;
8104;SDS011;4095;48.942;9.104;2022-10-15T16:07:32;3.10;;;1.43;;
8104;SDS011;4095;48.942;9.104;2022-10-15T16:09:58;1.73;;;1.00;;
8104;SDS011;4095;48.942;9.104;2022-10-15T16:12:24;1.33;;;1.20;;
8104;SDS011;4095;48.942;9.104;2022-10-15T16:14:49;3.23;;;1.43;;
8104;SDS011;4095;48.942;9.104;2022-10-15T16:17:15;1.20;;;1.10;;
8104;SDS011;4095;48.942;9.104;2022-10-15T16:19:41;2.27;;;1.17;;
8104;SDS011;4095;48.942;9.104;2022-10-15T16:22:06;3.07;;;1.07;;
8104;SDS011;4095;48.942;9.104;2022-10-15T16:24:32;1.30;;;1.00;;
8104;SDS011;4095;48.942;9.104;2022-10-15T16:26:57;1.40;;;1.00;;
8104;SDS011;4095;48.942;9.104;2022-10-15T16:29:23;2.63;;;1.13;;
8104;SDS011;4095;48.942;9.104;2022-10-15T16:31:49;1.00;;;0.90;;
8104;SDS011;4095;48.942;9.104;2022-10-15T16:34:15;1.33;;;1.00;;
8104;SDS011;4095;48.942;9.104;2022-10-15T16:36:40;4.23;;;1.20;;
8104;SDS011;4095;48.942;9.104;2022-10-15T16:39:06;3.63;;;1.10;;
8104;SDS011;4095;48.942;9.104;2022-10-15T16:41:32;0.80;;;0.80;;
8104;SDS011;4095;48.942;9.104;2022-10-15T16:43:57;1.30;;;1.20;;
8104;SDS011;4095;48.942;9.104;2022-10-15T16:46:23;1.03;;;1.00;;
8104;SDS011;4095;48.942;9.104;2022-10-15T16:48:52;4.40;;;4.00;;
8104;SDS011;4095;48.942;9.104;2022-10-15T16:51:19;5.67;;;3.60;;
8104;SDS011;4095;48.942;9.104;2022-10-15T16:53:45;2.77;;;2.03;;
8104;SDS011;4095;48.942;9.104;2022-10-15T16:56:16;2.67;;;2.47;;
8104;SDS011;4095;48.942;9.104;2022-10-15T16:58:49;2.33;;;1.77;;
8104;SDS011;4095;48.942;9.104;2022-10-15T17:01:16;1.83;;;1.60;;
8104;SDS011;4095;48.942;9.104;2022-10-15T17:03:44;1.97;;;1.10;;
8104;SDS011;4095;48.942;9.104;2022-10-15T17:06:14;1.10;;;1.00;;
8104;SDS011;4095;48.942;9.104;2022-10-15T17:08:43;1.00;;;0.90;;
8104;SDS011;4095;48.942;9.104;2022-10-15T17:13:47;2.07;;;0.90;;
8104;SDS011;4095;48.942;9.104;2022-10-15T17:16:16;2.20;;;1.00;;
8104;SDS011;4095;48.942;9.104;2022-10-15T17:18:43;1.80;;;1.17;;
8104;SDS011;4095;48.942;9.104;2022-10-15T17:21:11;1.63;;;0.90;;
8104;SDS011;4095;48.942;9.104;2022-10-15T17:23:38;2.13;;;0.93;;
8104;SDS011;4095;48.942;9.104;2022-10-15T17:26:05;2.47;;;0.90;;
8104;SDS011;4095;48.942;9.104;2022-10-15T17:28:35;2.53;;;0.90;;
8104;SDS011;4095;48.942;9.104;2022-10-15T17:31:04;4.20;;;1.23;;
8104;SDS011;4095;48.942;9.104;2022-10-15T17:33:33;1.30;;;1.20;;
8104;SDS011;4095;48.942;9.104;2022-10-15T17:36:00;1.37;;;1.00;;
8104;SDS011;4095;48.942;9.104;2022-10-15T17:38:29;2.87;;;1.40;;
8104;SDS011;4095;48.942;9.104;2022-10-15T17:40:55;1.50;;;1.10;;
8104;SDS011;4095;48.942;9.104;2022-10-15T17:43:21;3.20;;;1.20;;
8104;SDS011;4095;48.942;9.104;2022-10-15T17:45:47;2.30;;;1.07;;
8104;SDS011;4095;48.942;9.104;2022-10-15T17:48:12;2.63;;;0.90;;
8104;SDS011;4095;48.942;9.104;2022-10-15T17:50:38;1.17;;;0.80;;
8104;SDS011;4095;48.942;9.104;2022-10-15T17:53:04;1.60;;;1.20;;